sensor_id;sensor_type;location;lat;lon;timestamp;P1;durP1;ratioP1;P2;durP2;ratioP2
34765;SDS011;20984;43.508;1.504;2022-07-22T00:01:29;11.48;;;5.93;;
34765;SDS011;20984;43.508;1.504;2022-07-22T00:03:55;7.30;;;4.43;;
34765;SDS011;20984;43.508;1.504;2022-07-22T00:06:21;9.70;;;5.32;;
34765;SDS011;20984;43.508;1.504;2022-07-22T00:08:47;8.25;;;5.43;;
34765;SDS011;20984;43.508;1.504;2022-07-22T00:11:13;10.77;;;6.40;;
34765;SDS011;20984;43.508;1.504;2022-07-22T00:13:39;8.73;;;5.15;;
34765;SDS011;20984;43.508;1.504;2022-07-22T00:16:07;7.47;;;5.18;;
34765;SDS011;20984;43.508;1.504;2022-07-22T00:18:33;9.63;;;6.20;;
34765;SDS011;20984;43.508;1.504;2022-07-22T00:20:59;7.38;;;5.22;;
34765;SDS011;20984;43.508;1.504;2022-07-22T00:23:25;9.90;;;6.13;;
34765;SDS011;20984;43.508;1.504;2022-07-22T00:25:51;7.85;;;5.25;;
34765;SDS011;20984;43.508;1.504;2022-07-22T00:28:18;8.85;;;5.18;;
34765;SDS011;20984;43.508;1.504;2022-07-22T00:30:45;9.88;;;6.00;;
34765;SDS011;20984;43.508;1.504;2022-07-22T00:33:11;10.82;;;5.78;;
34765;SDS011;20984;43.508;1.504;2022-07-22T00:35:37;10.30;;;5.85;;
34765;SDS011;20984;43.508;1.504;2022-07-22T00:38:02;7.95;;;5.65;;
34765;SDS011;20984;43.508;1.504;2022-07-22T00:40:28;8.10;;;6.10;;
34765;SDS011;20984;43.508;1.504;2022-07-22T00:42:54;13.55;;;6.10;;
34765;SDS011;20984;43.508;1.504;2022-07-22T00:45:23;10.43;;;6.00;;
34765;SDS011;20984;43.508;1.504;2022-07-22T00:47:48;8.88;;;5.70;;
34765;SDS011;20984;43.508;1.504;2022-07-22T00:50:14;10.48;;;5.63;;
34765;SDS011;20984;43.508;1.504;2022-07-22T00:52:42;9.55;;;5.80;;
34765;SDS011;20984;43.508;1.504;2022-07-22T00:55:09;10.40;;;6.05;;
34765;SDS011;20984;43.508;1.504;2022-07-22T00:57:35;11.00;;;6.22;;
34765;SDS011;20984;43.508;1.504;2022-07-22T01:00:01;10.63;;;5.70;;
34765;SDS011;20984;43.508;1.504;2022-07-22T01:02:29;8.52;;;5.60;;
34765;SDS011;20984;43.508;1.504;2022-07-22T01:04:55;8.93;;;5.43;;
34765;SDS011;20984;43.508;1.504;2022-07-22T01:07:21;7.68;;;5.95;;
34765;SDS011;20984;43.508;1.504;2022-07-22T01:09:47;8.52;;;5.78;;
34765;SDS011;20984;43.508;1.504;2022-07-22T01:12:13;11.82;;;5.50;;
34765;SDS011;20984;43.508;1.504;2022-07-22T01:14:39;12.15;;;6.55;;
34765;SDS011;20984;43.508;1.504;2022-07-22T01:17:05;9.90;;;5.43;;
34765;SDS011;20984;43.508;1.504;2022-07-22T01:19:31;10.00;;;5.65;;
34765;SDS011;20984;43.508;1.504;2022-07-22T01:21:57;7.70;;;5.57;;
34765;SDS011;20984;43.508;1.504;2022-07-22T01:24:23;9.80;;;6.10;;
34765;SDS011;20984;43.508;1.504;2022-07-22T01:26:49;9.18;;;5.47;;
34765;SDS011;20984;43.508;1.504;2022-07-22T01:29:15;9.30;;;6.03;;
34765;SDS011;20984;43.508;1.504;2022-07-22T01:31:41;8.52;;;5.55;;
34765;SDS011;20984;43.508;1.504;2022-07-22T01:34:07;9.52;;;6.03;;
34765;SDS011;20984;43.508;1.504;2022-07-22T01:36:33;8.32;;;5.88;;
34765;SDS011;20984;43.508;1.504;2022-07-22T01:38:59;6.95;;;5.38;;
34765;SDS011;20984;43.508;1.504;2022-07-22T01:41:25;7.82;;;5.80;;
34765;SDS011;20984;43.508;1.504;2022-07-22T01:43:51;9.88;;;5.50;;
34765;SDS011;20984;43.508;1.504;2022-07-22T01:46:17;11.10;;;5.75;;
34765;SDS011;20984;43.508;1.504;2022-07-22T01:48:43;10.15;;;6.22;;
34765;SDS011;20984;43.508;1.504;2022-07-22T01:51:10;10.75;;;6.20;;
34765;SDS011;20984;43.508;1.504;2022-07-22T01:53:36;8.50;;;5.65;;
34765;SDS011;20984;43.508;1.504;2022-07-22T01:56:01;11.57;;;6.28;;
34765;SDS011;20984;43.508;1.504;2022-07-22T01:58:28;9.73;;;6.03;;
34765;SDS011;20984;43.508;1.504;2022-07-22T02:00:54;6.78;;;5.50;;
34765;SDS011;20984;43.508;1.504;2022-07-22T02:03:20;10.18;;;5.50;;
34765;SDS011;20984;43.508;1.504;2022-07-22T02:05:46;8.63;;;5.63;;
34765;SDS011;20984;43.508;1.504;2022-07-22T02:08:14;10.40;;;5.78;;
34765;SDS011;20984;43.508;1.504;2022-07-22T02:10:40;10.50;;;6.63;;
34765;SDS011;20984;43.508;1.504;2022-07-22T02:13:07;9.38;;;5.93;;
34765;SDS011;20984;43.508;1.504;2022-07-22T02:15:33;8.05;;;5.85;;
34765;SDS011;20984;43.508;1.504;2022-07-22T02:17:59;10.32;;;6.20;;
34765;SDS011;20984;43.508;1.504;2022-07-22T02:20:25;8.25;;;5.47;;
34765;SDS011;20984;43.508;1.504;2022-07-22T02:22:51;8.32;;;4.72;;
34765;SDS011;20984;43.508;1.504;2022-07-22T02:25:17;10.70;;;5.43;;
34765;SDS011;20984;43.508;1.504;2022-07-22T02:27:43;8.05;;;6.05;;
34765;SDS011;20984;43.508;1.504;2022-07-22T02:30:09;6.50;;;4.82;;
34765;SDS011;20984;43.508;1.504;2022-07-22T02:32:38;10.60;;;5.30;;
34765;SDS011;20984;43.508;1.504;2022-07-22T02:35:04;7.85;;;5.75;;
34765;SDS011;20984;43.508;1.504;2022-07-22T02:37:31;8.32;;;5.60;;
34765;SDS011;20984;43.508;1.504;2022-07-22T02:39:57;7.90;;;5.40;;
34765;SDS011;20984;43.508;1.504;2022-07-22T02:42:25;9.75;;;5.65;;
34765;SDS011;20984;43.508;1.504;2022-07-22T02:44:51;7.38;;;5.15;;
34765;SDS011;20984;43.508;1.504;2022-07-22T02:47:20;6.93;;;5.05;;
34765;SDS011;20984;43.508;1.504;2022-07-22T02:49:46;10.98;;;6.13;;
34765;SDS011;20984;43.508;1.504;2022-07-22T02:52:11;6.32;;;5.20;;
34765;SDS011;20984;43.508;1.504;2022-07-22T02:54:40;8.55;;;6.05;;
34765;SDS011;20984;43.508;1.504;2022-07-22T02:57:06;9.07;;;5.97;;
34765;SDS011;20984;43.508;1.504;2022-07-22T02:59:32;7.80;;;6.15;;
34765;SDS011;20984;43.508;1.504;2022-07-22T03:01:58;12.45;;;6.70;;
34765;SDS011;20984;43.508;1.504;2022-07-22T03:04:23;9.90;;;5.90;;
34765;SDS011;20984;43.508;1.504;2022-07-22T03:06:49;7.78;;;5.93;;
34765;SDS011;20984;43.508;1.504;2022-07-22T03:09:15;13.45;;;7.32;;
34765;SDS011;20984;43.508;1.504;2022-07-22T03:11:41;9.88;;;6.57;;
34765;SDS011;20984;43.508;1.504;2022-07-22T03:14:07;9.07;;;5.85;;
34765;SDS011;20984;43.508;1.504;2022-07-22T03:16:33;7.97;;;5.97;;
34765;SDS011;20984;43.508;1.504;2022-07-22T03:18:59;12.32;;;6.72;;
34765;SDS011;20984;43.508;1.504;2022-07-22T03:21:25;9.52;;;7.00;;
34765;SDS011;20984;43.508;1.504;2022-07-22T03:23:50;12.30;;;7.28;;
34765;SDS011;20984;43.508;1.504;2022-07-22T03:26:19;10.20;;;7.07;;
34765;SDS011;20984;43.508;1.504;2022-07-22T03:28:46;10.25;;;6.35;;
34765;SDS011;20984;43.508;1.504;2022-07-22T03:31:12;10.38;;;6.78;;
34765;SDS011;20984;43.508;1.504;2022-07-22T03:33:38;14.13;;;6.70;;
34765;SDS011;20984;43.508;1.504;2022-07-22T03:36:04;10.15;;;7.07;;
34765;SDS011;20984;43.508;1.504;2022-07-22T03:38:31;10.27;;;6.53;;
34765;SDS011;20984;43.508;1.504;2022-07-22T03:40:58;13.18;;;6.63;;
34765;SDS011;20984;43.508;1.504;2022-07-22T03:43:24;8.90;;;6.63;;
34765;SDS011;20984;43.508;1.504;2022-07-22T03:45:50;9.70;;;7.68;;
34765;SDS011;20984;43.508;1.504;2022-07-22T03:48:16;9.95;;;6.80;;
34765;SDS011;20984;43.508;1.504;2022-07-22T03:50:44;10.20;;;6.28;;
34765;SDS011;20984;43.508;1.504;2022-07-22T03:53:10;12.98;;;6.35;;
34765;SDS011;20984;43.508;1.504;2022-07-22T03:55:36;11.10;;;6.65;;
34765;SDS011;20984;43.508;1.504;2022-07-22T03:58:02;13.25;;;6.88;;
34765;SDS011;20984;43.508;1.504;2022-07-22T04:00:28;11.40;;;6.80;;
34765;SDS011;20984;43.508;1.504;2022-07-22T04:02:54;11.38;;;7.57;;
34765;SDS011;20984;43.508;1.504;2022-07-22T04:05:20;13.10;;;7.32;;
34765;SDS011;20984;43.508;1.504;2022-07-22T04:07:46;14.55;;;7.18;;
34765;SDS011;20984;43.508;1.504;2022-07-22T04:10:12;15.30;;;7.13;;
34765;SDS011;20984;43.508;1.504;2022-07-22T04:12:38;8.45;;;6.85;;
34765;SDS011;20984;43.508;1.504;2022-07-22T04:15:06;10.65;;;7.13;;
34765;SDS011;20984;43.508;1.504;2022-07-22T04:17:33;8.93;;;7.03;;
34765;SDS011;20984;43.508;1.504;2022-07-22T04:19:59;15.48;;;7.05;;
34765;SDS011;20984;43.508;1.504;2022-07-22T04:22:29;7.68;;;6.50;;
34765;SDS011;20984;43.508;1.504;2022-07-22T04:24:55;10.35;;;6.57;;
34765;SDS011;20984;43.508;1.504;2022-07-22T04:27:21;8.13;;;6.45;;
34765;SDS011;20984;43.508;1.504;2022-07-22T04:29:47;15.45;;;6.80;;
34765;SDS011;20984;43.508;1.504;2022-07-22T04:32:12;13.35;;;5.80;;
34765;SDS011;20984;43.508;1.504;2022-07-22T04:34:38;10.73;;;6.53;;
34765;SDS011;20984;43.508;1.504;2022-07-22T04:37:05;13.15;;;6.88;;
34765;SDS011;20984;43.508;1.504;2022-07-22T04:39:31;8.60;;;6.63;;
34765;SDS011;20984;43.508;1.504;2022-07-22T04:41:56;11.32;;;6.30;;
34765;SDS011;20984;43.508;1.504;2022-07-22T04:44:22;11.73;;;6.35;;
34765;SDS011;20984;43.508;1.504;2022-07-22T04:46:48;10.98;;;6.30;;
34765;SDS011;20984;43.508;1.504;2022-07-22T04:49:14;9.57;;;6.50;;
34765;SDS011;20984;43.508;1.504;2022-07-22T04:51:40;8.85;;;6.05;;
34765;SDS011;20984;43.508;1.504;2022-07-22T04:54:06;10.52;;;6.25;;
34765;SDS011;20984;43.508;1.504;2022-07-22T04:56:32;13.80;;;6.57;;
34765;SDS011;20984;43.508;1.504;2022-07-22T04:59:00;9.00;;;6.28;;
34765;SDS011;20984;43.508;1.504;2022-07-22T05:01:26;12.30;;;6.72;;
34765;SDS011;20984;43.508;1.504;2022-07-22T05:03:52;13.23;;;6.60;;
34765;SDS011;20984;43.508;1.504;2022-07-22T05:06:18;10.98;;;6.53;;
34765;SDS011;20984;43.508;1.504;2022-07-22T05:08:46;10.55;;;6.60;;
34765;SDS011;20984;43.508;1.504;2022-07-22T05:11:12;12.25;;;6.47;;
34765;SDS011;20984;43.508;1.504;2022-07-22T05:13:38;11.60;;;6.60;;
34765;SDS011;20984;43.508;1.504;2022-07-22T05:16:05;10.68;;;6.20;;
34765;SDS011;20984;43.508;1.504;2022-07-22T05:18:31;7.18;;;5.63;;
34765;SDS011;20984;43.508;1.504;2022-07-22T05:20:57;13.40;;;6.85;;
34765;SDS011;20984;43.508;1.504;2022-07-22T05:23:23;12.02;;;6.28;;
34765;SDS011;20984;43.508;1.504;2022-07-22T05:25:49;11.05;;;7.80;;
34765;SDS011;20984;43.508;1.504;2022-07-22T05:28:15;12.57;;;7.18;;
34765;SDS011;20984;43.508;1.504;2022-07-22T05:30:45;12.07;;;6.75;;
34765;SDS011;20984;43.508;1.504;2022-07-22T05:33:11;12.77;;;6.47;;
34765;SDS011;20984;43.508;1.504;2022-07-22T05:35:39;12.93;;;6.85;;
34765;SDS011;20984;43.508;1.504;2022-07-22T05:38:07;8.75;;;5.60;;
34765;SDS011;20984;43.508;1.504;2022-07-22T05:40:33;12.27;;;6.30;;
34765;SDS011;20984;43.508;1.504;2022-07-22T05:43:02;13.20;;;7.53;;
34765;SDS011;20984;43.508;1.504;2022-07-22T05:45:28;10.98;;;6.43;;
34765;SDS011;20984;43.508;1.504;2022-07-22T05:47:54;10.50;;;6.20;;
34765;SDS011;20984;43.508;1.504;2022-07-22T05:50:20;11.25;;;6.55;;
34765;SDS011;20984;43.508;1.504;2022-07-22T05:52:48;13.38;;;6.35;;
34765;SDS011;20984;43.508;1.504;2022-07-22T05:55:14;12.98;;;6.47;;
34765;SDS011;20984;43.508;1.504;2022-07-22T05:57:40;11.05;;;7.28;;
34765;SDS011;20984;43.508;1.504;2022-07-22T06:00:06;12.20;;;7.07;;
34765;SDS011;20984;43.508;1.504;2022-07-22T06:02:32;15.32;;;7.10;;
34765;SDS011;20984;43.508;1.504;2022-07-22T06:04:58;13.32;;;6.50;;
34765;SDS011;20984;43.508;1.504;2022-07-22T06:07:30;10.57;;;6.78;;
34765;SDS011;20984;43.508;1.504;2022-07-22T06:09:59;11.75;;;6.57;;
34765;SDS011;20984;43.508;1.504;2022-07-22T06:12:25;15.52;;;7.40;;
34765;SDS011;20984;43.508;1.504;2022-07-22T06:14:53;12.60;;;6.75;;
34765;SDS011;20984;43.508;1.504;2022-07-22T06:17:19;10.38;;;6.95;;
34765;SDS011;20984;43.508;1.504;2022-07-22T06:19:45;18.65;;;8.15;;
34765;SDS011;20984;43.508;1.504;2022-07-22T06:22:13;17.38;;;7.53;;
34765;SDS011;20984;43.508;1.504;2022-07-22T06:24:42;23.60;;;7.93;;
34765;SDS011;20984;43.508;1.504;2022-07-22T06:27:08;11.00;;;6.35;;
34765;SDS011;20984;43.508;1.504;2022-07-22T06:29:34;11.48;;;6.80;;
34765;SDS011;20984;43.508;1.504;2022-07-22T06:32:03;15.02;;;7.38;;
34765;SDS011;20984;43.508;1.504;2022-07-22T06:34:29;11.27;;;7.60;;
34765;SDS011;20984;43.508;1.504;2022-07-22T06:36:55;15.80;;;7.78;;
34765;SDS011;20984;43.508;1.504;2022-07-22T06:39:21;11.68;;;7.22;;
34765;SDS011;20984;43.508;1.504;2022-07-22T06:41:47;16.38;;;8.10;;
34765;SDS011;20984;43.508;1.504;2022-07-22T06:44:13;14.05;;;7.20;;
34765;SDS011;20984;43.508;1.504;2022-07-22T06:46:38;12.73;;;7.32;;
34765;SDS011;20984;43.508;1.504;2022-07-22T06:49:04;12.60;;;7.47;;
34765;SDS011;20984;43.508;1.504;2022-07-22T06:51:31;13.80;;;6.38;;
34765;SDS011;20984;43.508;1.504;2022-07-22T06:53:57;16.13;;;7.53;;
34765;SDS011;20984;43.508;1.504;2022-07-22T06:56:23;15.35;;;7.50;;
34765;SDS011;20984;43.508;1.504;2022-07-22T06:58:49;18.27;;;7.90;;
34765;SDS011;20984;43.508;1.504;2022-07-22T07:01:15;23.02;;;9.02;;
34765;SDS011;20984;43.508;1.504;2022-07-22T07:03:41;15.55;;;7.30;;
34765;SDS011;20984;43.508;1.504;2022-07-22T07:06:07;14.27;;;8.15;;
34765;SDS011;20984;43.508;1.504;2022-07-22T07:08:36;17.98;;;8.00;;
34765;SDS011;20984;43.508;1.504;2022-07-22T07:11:03;16.23;;;7.63;;
34765;SDS011;20984;43.508;1.504;2022-07-22T07:13:29;17.80;;;8.45;;
34765;SDS011;20984;43.508;1.504;2022-07-22T07:15:56;14.80;;;7.40;;
34765;SDS011;20984;43.508;1.504;2022-07-22T07:18:21;16.52;;;8.05;;
34765;SDS011;20984;43.508;1.504;2022-07-22T07:20:47;22.92;;;8.77;;
34765;SDS011;20984;43.508;1.504;2022-07-22T07:23:13;16.95;;;7.93;;
34765;SDS011;20984;43.508;1.504;2022-07-22T07:25:39;18.98;;;7.55;;
34765;SDS011;20984;43.508;1.504;2022-07-22T07:28:05;14.15;;;7.78;;
34765;SDS011;20984;43.508;1.504;2022-07-22T07:30:31;17.48;;;8.40;;
34765;SDS011;20984;43.508;1.504;2022-07-22T07:32:57;20.33;;;8.85;;
34765;SDS011;20984;43.508;1.504;2022-07-22T07:35:25;18.08;;;8.15;;
34765;SDS011;20984;43.508;1.504;2022-07-22T07:37:52;13.68;;;7.82;;
34765;SDS011;20984;43.508;1.504;2022-07-22T07:40:18;20.70;;;7.75;;
34765;SDS011;20984;43.508;1.504;2022-07-22T07:42:44;17.20;;;8.63;;
34765;SDS011;20984;43.508;1.504;2022-07-22T07:45:10;13.02;;;6.72;;
34765;SDS011;20984;43.508;1.504;2022-07-22T07:47:36;22.33;;;7.43;;
34765;SDS011;20984;43.508;1.504;2022-07-22T07:50:06;17.92;;;9.07;;
34765;SDS011;20984;43.508;1.504;2022-07-22T07:52:42;20.20;;;8.73;;
34765;SDS011;20984;43.508;1.504;2022-07-22T07:55:12;18.33;;;8.27;;
34765;SDS011;20984;43.508;1.504;2022-07-22T07:57:39;18.10;;;7.28;;
34765;SDS011;20984;43.508;1.504;2022-07-22T08:00:06;14.35;;;8.07;;
34765;SDS011;20984;43.508;1.504;2022-07-22T08:02:34;17.77;;;8.45;;
34765;SDS011;20984;43.508;1.504;2022-07-22T08:05:00;17.75;;;7.32;;
34765;SDS011;20984;43.508;1.504;2022-07-22T08:07:27;12.02;;;6.82;;
34765;SDS011;20984;43.508;1.504;2022-07-22T08:09:53;12.38;;;7.22;;
34765;SDS011;20984;43.508;1.504;2022-07-22T08:12:19;20.33;;;7.55;;
34765;SDS011;20984;43.508;1.504;2022-07-22T08:14:48;16.27;;;7.70;;
34765;SDS011;20984;43.508;1.504;2022-07-22T08:17:14;15.50;;;7.35;;
34765;SDS011;20984;43.508;1.504;2022-07-22T08:19:40;16.15;;;7.95;;
34765;SDS011;20984;43.508;1.504;2022-07-22T08:22:06;29.20;;;8.38;;
34765;SDS011;20984;43.508;1.504;2022-07-22T08:24:32;18.65;;;7.72;;
34765;SDS011;20984;43.508;1.504;2022-07-22T08:26:58;11.27;;;7.60;;
34765;SDS011;20984;43.508;1.504;2022-07-22T08:29:23;15.00;;;6.55;;
34765;SDS011;20984;43.508;1.504;2022-07-22T08:31:49;18.23;;;7.10;;
34765;SDS011;20984;43.508;1.504;2022-07-22T08:34:15;16.02;;;7.13;;
34765;SDS011;20984;43.508;1.504;2022-07-22T08:36:41;18.02;;;6.97;;
34765;SDS011;20984;43.508;1.504;2022-07-22T08:39:07;20.05;;;7.30;;
34765;SDS011;20984;43.508;1.504;2022-07-22T08:41:34;15.18;;;7.57;;
34765;SDS011;20984;43.508;1.504;2022-07-22T08:44:02;12.25;;;7.00;;
34765;SDS011;20984;43.508;1.504;2022-07-22T08:46:29;14.75;;;6.85;;
34765;SDS011;20984;43.508;1.504;2022-07-22T08:48:58;16.15;;;7.60;;
34765;SDS011;20984;43.508;1.504;2022-07-22T08:51:26;18.27;;;7.35;;
34765;SDS011;20984;43.508;1.504;2022-07-22T08:53:53;26.48;;;8.85;;
34765;SDS011;20984;43.508;1.504;2022-07-22T08:56:20;12.10;;;7.47;;
34765;SDS011;20984;43.508;1.504;2022-07-22T08:58:46;19.02;;;7.32;;
34765;SDS011;20984;43.508;1.504;2022-07-22T09:01:13;16.92;;;7.65;;
34765;SDS011;20984;43.508;1.504;2022-07-22T09:03:51;16.75;;;7.35;;
34765;SDS011;20984;43.508;1.504;2022-07-22T09:06:18;20.42;;;7.63;;
34765;SDS011;20984;43.508;1.504;2022-07-22T09:09:02;15.50;;;6.55;;
34765;SDS011;20984;43.508;1.504;2022-07-22T09:11:30;15.00;;;7.13;;
34765;SDS011;20984;43.508;1.504;2022-07-22T09:13:57;16.60;;;7.30;;
34765;SDS011;20984;43.508;1.504;2022-07-22T09:19:09;18.02;;;7.32;;
34765;SDS011;20984;43.508;1.504;2022-07-22T09:21:36;17.83;;;7.53;;
34765;SDS011;20984;43.508;1.504;2022-07-22T09:24:05;14.02;;;6.70;;
34765;SDS011;20984;43.508;1.504;2022-07-22T09:26:32;12.40;;;6.75;;
34765;SDS011;20984;43.508;1.504;2022-07-22T09:29:00;12.63;;;6.82;;
34765;SDS011;20984;43.508;1.504;2022-07-22T09:31:34;11.55;;;6.97;;
34765;SDS011;20984;43.508;1.504;2022-07-22T09:34:09;17.92;;;7.28;;
34765;SDS011;20984;43.508;1.504;2022-07-22T09:39:42;12.55;;;6.68;;
34765;SDS011;20984;43.508;1.504;2022-07-22T09:42:08;10.85;;;5.93;;
34765;SDS011;20984;43.508;1.504;2022-07-22T09:44:34;14.48;;;7.30;;
34765;SDS011;20984;43.508;1.504;2022-07-22T09:47:07;15.45;;;6.47;;
34765;SDS011;20984;43.508;1.504;2022-07-22T09:49:54;14.90;;;6.57;;
34765;SDS011;20984;43.508;1.504;2022-07-22T09:52:21;16.92;;;6.85;;
34765;SDS011;20984;43.508;1.504;2022-07-22T09:54:47;12.82;;;6.72;;
34765;SDS011;20984;43.508;1.504;2022-07-22T09:57:13;14.05;;;7.10;;
34765;SDS011;20984;43.508;1.504;2022-07-22T09:59:39;13.55;;;7.03;;
34765;SDS011;20984;43.508;1.504;2022-07-22T10:02:05;14.20;;;6.70;;
34765;SDS011;20984;43.508;1.504;2022-07-22T10:04:33;11.57;;;5.68;;
34765;SDS011;20984;43.508;1.504;2022-07-22T10:07:01;9.70;;;5.65;;
34765;SDS011;20984;43.508;1.504;2022-07-22T10:09:27;17.90;;;6.93;;
34765;SDS011;20984;43.508;1.504;2022-07-22T10:11:54;13.00;;;6.35;;
34765;SDS011;20984;43.508;1.504;2022-07-22T10:14:21;17.38;;;6.85;;
34765;SDS011;20984;43.508;1.504;2022-07-22T10:16:48;14.70;;;6.72;;
34765;SDS011;20984;43.508;1.504;2022-07-22T10:19:14;16.10;;;6.30;;
34765;SDS011;20984;43.508;1.504;2022-07-22T10:21:40;13.85;;;7.00;;
34765;SDS011;20984;43.508;1.504;2022-07-22T10:24:13;16.80;;;6.65;;
34765;SDS011;20984;43.508;1.504;2022-07-22T10:26:50;10.52;;;5.55;;
34765;SDS011;20984;43.508;1.504;2022-07-22T10:29:24;14.23;;;6.47;;
34765;SDS011;20984;43.508;1.504;2022-07-22T10:34:41;14.90;;;5.80;;
34765;SDS011;20984;43.508;1.504;2022-07-22T10:37:42;9.27;;;5.60;;
34765;SDS011;20984;43.508;1.504;2022-07-22T10:43:02;13.02;;;6.47;;
34765;SDS011;20984;43.508;1.504;2022-07-22T10:48:10;14.05;;;6.03;;
34765;SDS011;20984;43.508;1.504;2022-07-22T10:50:38;9.85;;;5.85;;
34765;SDS011;20984;43.508;1.504;2022-07-22T10:53:09;9.65;;;6.22;;
34765;SDS011;20984;43.508;1.504;2022-07-22T10:55:36;10.52;;;5.85;;
34765;SDS011;20984;43.508;1.504;2022-07-22T11:01:07;12.13;;;5.57;;
34765;SDS011;20984;43.508;1.504;2022-07-22T11:03:35;11.32;;;5.47;;
34765;SDS011;20984;43.508;1.504;2022-07-22T11:06:15;13.50;;;6.07;;
34765;SDS011;20984;43.508;1.504;2022-07-22T11:08:42;12.43;;;5.60;;
34765;SDS011;20984;43.508;1.504;2022-07-22T11:11:10;8.18;;;5.22;;
34765;SDS011;20984;43.508;1.504;2022-07-22T11:13:37;11.18;;;5.82;;
34765;SDS011;20984;43.508;1.504;2022-07-22T11:18:54;15.90;;;5.88;;
34765;SDS011;20984;43.508;1.504;2022-07-22T11:21:23;12.55;;;5.95;;
34765;SDS011;20984;43.508;1.504;2022-07-22T11:23:51;12.10;;;5.22;;
34765;SDS011;20984;43.508;1.504;2022-07-22T11:26:19;11.60;;;5.78;;
34765;SDS011;20984;43.508;1.504;2022-07-22T11:29:06;10.70;;;6.28;;
34765;SDS011;20984;43.508;1.504;2022-07-22T11:31:33;11.82;;;5.68;;
34765;SDS011;20984;43.508;1.504;2022-07-22T11:36:39;8.88;;;5.10;;
34765;SDS011;20984;43.508;1.504;2022-07-22T11:39:07;8.30;;;5.22;;
34765;SDS011;20984;43.508;1.504;2022-07-22T11:41:34;11.23;;;5.72;;
34765;SDS011;20984;43.508;1.504;2022-07-22T11:44:01;13.38;;;5.70;;
34765;SDS011;20984;43.508;1.504;2022-07-22T11:46:27;10.90;;;5.70;;
34765;SDS011;20984;43.508;1.504;2022-07-22T11:48:53;13.80;;;5.78;;
34765;SDS011;20984;43.508;1.504;2022-07-22T11:51:26;14.60;;;5.70;;
34765;SDS011;20984;43.508;1.504;2022-07-22T11:53:56;11.85;;;6.28;;
34765;SDS011;20984;43.508;1.504;2022-07-22T11:56:23;12.32;;;5.10;;
34765;SDS011;20984;43.508;1.504;2022-07-22T11:58:50;11.63;;;5.68;;
34765;SDS011;20984;43.508;1.504;2022-07-22T12:01:21;12.15;;;5.60;;
34765;SDS011;20984;43.508;1.504;2022-07-22T12:03:50;13.25;;;5.38;;
34765;SDS011;20984;43.508;1.504;2022-07-22T12:06:18;16.10;;;4.35;;
34765;SDS011;20984;43.508;1.504;2022-07-22T12:11:20;12.80;;;4.55;;
34765;SDS011;20984;43.508;1.504;2022-07-22T12:16:19;14.68;;;5.57;;
34765;SDS011;20984;43.508;1.504;2022-07-22T12:18:51;17.58;;;5.50;;
34765;SDS011;20984;43.508;1.504;2022-07-22T12:21:26;11.27;;;4.97;;
34765;SDS011;20984;43.508;1.504;2022-07-22T12:26:42;6.85;;;4.15;;
34765;SDS011;20984;43.508;1.504;2022-07-22T12:31:57;13.18;;;5.15;;
34765;SDS011;20984;43.508;1.504;2022-07-22T12:34:32;8.95;;;4.75;;
34765;SDS011;20984;43.508;1.504;2022-07-22T12:37:18;11.73;;;4.40;;
34765;SDS011;20984;43.508;1.504;2022-07-22T12:42:41;8.65;;;4.07;;
34765;SDS011;20984;43.508;1.504;2022-07-22T12:45:18;10.30;;;4.28;;
34765;SDS011;20984;43.508;1.504;2022-07-22T12:47:56;11.13;;;4.93;;
34765;SDS011;20984;43.508;1.504;2022-07-22T12:55:31;12.68;;;4.22;;
34765;SDS011;20984;43.508;1.504;2022-07-22T12:58:01;12.10;;;4.10;;
34765;SDS011;20984;43.508;1.504;2022-07-22T13:00:30;11.18;;;4.95;;
34765;SDS011;20984;43.508;1.504;2022-07-22T13:03:00;15.27;;;4.88;;
34765;SDS011;20984;43.508;1.504;2022-07-22T13:05:26;13.40;;;5.15;;
34765;SDS011;20984;43.508;1.504;2022-07-22T13:07:52;8.73;;;4.35;;
34765;SDS011;20984;43.508;1.504;2022-07-22T13:10:19;7.18;;;4.93;;
34765;SDS011;20984;43.508;1.504;2022-07-22T13:12:50;12.95;;;3.97;;
34765;SDS011;20984;43.508;1.504;2022-07-22T13:15:16;9.02;;;4.65;;
34765;SDS011;20984;43.508;1.504;2022-07-22T13:17:43;17.58;;;4.72;;
34765;SDS011;20984;43.508;1.504;2022-07-22T13:20:09;9.43;;;4.40;;
34765;SDS011;20984;43.508;1.504;2022-07-22T13:22:36;8.60;;;4.63;;
34765;SDS011;20984;43.508;1.504;2022-07-22T13:25:02;15.95;;;5.93;;
34765;SDS011;20984;43.508;1.504;2022-07-22T13:27:28;8.13;;;4.32;;
34765;SDS011;20984;43.508;1.504;2022-07-22T13:29:55;12.38;;;6.32;;
34765;SDS011;20984;43.508;1.504;2022-07-22T13:32:20;11.93;;;4.70;;
34765;SDS011;20984;43.508;1.504;2022-07-22T13:34:46;11.48;;;4.35;;
34765;SDS011;20984;43.508;1.504;2022-07-22T13:37:12;14.18;;;5.05;;
34765;SDS011;20984;43.508;1.504;2022-07-22T13:39:38;8.85;;;4.35;;
34765;SDS011;20984;43.508;1.504;2022-07-22T13:42:06;9.75;;;3.97;;
34765;SDS011;20984;43.508;1.504;2022-07-22T13:44:32;14.40;;;4.60;;
34765;SDS011;20984;43.508;1.504;2022-07-22T13:47:00;5.32;;;3.97;;
34765;SDS011;20984;43.508;1.504;2022-07-22T13:49:26;10.50;;;4.82;;
34765;SDS011;20984;43.508;1.504;2022-07-22T13:51:52;9.48;;;4.95;;
34765;SDS011;20984;43.508;1.504;2022-07-22T13:54:19;7.63;;;4.70;;
34765;SDS011;20984;43.508;1.504;2022-07-22T13:56:45;10.00;;;4.38;;
34765;SDS011;20984;43.508;1.504;2022-07-22T13:59:14;18.05;;;4.55;;
34765;SDS011;20984;43.508;1.504;2022-07-22T14:01:41;10.45;;;5.15;;
34765;SDS011;20984;43.508;1.504;2022-07-22T14:04:07;9.55;;;5.05;;
34765;SDS011;20984;43.508;1.504;2022-07-22T14:06:34;12.98;;;3.97;;
34765;SDS011;20984;43.508;1.504;2022-07-22T14:09:00;17.55;;;5.63;;
34765;SDS011;20984;43.508;1.504;2022-07-22T14:11:28;23.02;;;5.63;;
34765;SDS011;20984;43.508;1.504;2022-07-22T14:13:54;9.77;;;4.65;;
34765;SDS011;20984;43.508;1.504;2022-07-22T14:16:20;9.13;;;5.20;;
34765;SDS011;20984;43.508;1.504;2022-07-22T14:19:02;15.30;;;5.32;;
34765;SDS011;20984;43.508;1.504;2022-07-22T14:21:33;9.90;;;5.38;;
34765;SDS011;20984;43.508;1.504;2022-07-22T14:24:00;12.30;;;4.70;;
34765;SDS011;20984;43.508;1.504;2022-07-22T14:26:27;10.75;;;5.43;;
34765;SDS011;20984;43.508;1.504;2022-07-22T14:28:53;12.93;;;6.07;;
34765;SDS011;20984;43.508;1.504;2022-07-22T14:31:19;11.68;;;5.43;;
34765;SDS011;20984;43.508;1.504;2022-07-22T14:33:45;11.82;;;5.07;;
34765;SDS011;20984;43.508;1.504;2022-07-22T14:36:12;14.95;;;5.60;;
34765;SDS011;20984;43.508;1.504;2022-07-22T14:38:38;16.85;;;5.57;;
34765;SDS011;20984;43.508;1.504;2022-07-22T14:41:04;10.27;;;5.18;;
34765;SDS011;20984;43.508;1.504;2022-07-22T14:43:30;11.35;;;4.55;;
34765;SDS011;20984;43.508;1.504;2022-07-22T14:45:56;12.43;;;5.13;;
34765;SDS011;20984;43.508;1.504;2022-07-22T14:48:21;8.40;;;5.10;;
34765;SDS011;20984;43.508;1.504;2022-07-22T14:50:47;10.85;;;5.60;;
34765;SDS011;20984;43.508;1.504;2022-07-22T14:53:14;12.00;;;4.85;;
34765;SDS011;20984;43.508;1.504;2022-07-22T14:55:42;8.70;;;4.65;;
34765;SDS011;20984;43.508;1.504;2022-07-22T14:58:08;7.72;;;4.22;;
34765;SDS011;20984;43.508;1.504;2022-07-22T15:00:33;11.60;;;4.55;;
34765;SDS011;20984;43.508;1.504;2022-07-22T15:02:59;6.05;;;4.50;;
34765;SDS011;20984;43.508;1.504;2022-07-22T15:05:25;8.95;;;5.35;;
34765;SDS011;20984;43.508;1.504;2022-07-22T15:07:52;10.70;;;4.50;;
34765;SDS011;20984;43.508;1.504;2022-07-22T15:10:18;14.45;;;5.47;;
34765;SDS011;20984;43.508;1.504;2022-07-22T15:12:44;5.20;;;4.35;;
34765;SDS011;20984;43.508;1.504;2022-07-22T15:15:10;11.20;;;5.15;;
34765;SDS011;20984;43.508;1.504;2022-07-22T15:17:36;9.30;;;5.70;;
34765;SDS011;20984;43.508;1.504;2022-07-22T15:20:04;7.90;;;5.00;;